Severomorsk, Russia
Current Conditions -  °F | °C
As of 3:30 PM on Friday 31 Oct 2014 (Local Time) from ULMM Reporting Station
Broken Clouds Broken Clouds  
Wind Chill: 21°   Ceiling: 8000
Heat Index: 28°   Visibility: 6mi
Dew Point: 25°   Wind: 7mph
Humidity: 86%   Direction: 300°WNW
Pressure: 30"   Gusts: NA
Location:  69.07°N, 33.42°E
Report Text: ULMM 311230Z 30003MPS 9999 FEW016CB BKN080 M02/M04 Q1016 NOSIGRMK QFE754 31590342
Loading
Personal Weather Stations






























Interactive Weather Map
Tropical Storm Tracking
New forecast layout! Learn more

10-Day Weather Forecast

Advertisements
Track Severe Weather on mobile